createdAt,value
2018-03-06T00:02:27.690Z,47.20
2018-03-06T00:12:29.254Z,50.97
2018-03-06T00:22:31.557Z,44.60
2018-03-06T00:32:33.106Z,48.53
2018-03-06T00:42:34.680Z,55.97
2018-03-06T00:52:36.334Z,58.60
2018-03-06T01:02:37.930Z,67.70
2018-03-06T01:12:39.481Z,56.27
2018-03-06T01:22:41.211Z,59.33
2018-03-06T01:32:42.762Z,71.40
2018-03-06T01:42:44.308Z,78.63
2018-03-06T01:52:45.847Z,67.43
2018-03-06T02:02:47.351Z,84.87
2018-03-06T02:12:48.887Z,87.17
2018-03-06T02:22:51.140Z,78.90
2018-03-06T02:32:52.657Z,79.53
2018-03-06T02:42:54.181Z,77.73
2018-03-06T02:52:55.746Z,80.97
2018-03-06T03:02:57.290Z,87.03
2018-03-06T03:12:59.571Z,100.87
2018-03-06T03:23:01.093Z,100.20
2018-03-06T03:33:02.585Z,96.87
2018-03-06T03:43:04.121Z,85.10
2018-03-06T03:53:05.743Z,98.80
2018-03-06T04:03:07.293Z,97.07
2018-03-06T04:13:08.839Z,105.87
2018-03-06T04:23:10.349Z,87.13
2018-03-06T04:33:12.042Z,81.37
2018-03-06T04:43:13.589Z,84.93
2018-03-06T04:53:15.136Z,101.10
2018-03-06T05:03:16.705Z,102.60
2018-03-06T05:13:18.972Z,116.97
2018-03-06T05:23:20.560Z,103.43
2018-03-06T05:33:22.115Z,87.63
2018-03-06T05:43:24.397Z,121.63
2018-03-06T05:53:25.952Z,110.13
2018-03-06T06:03:27.572Z,122.23
2018-03-06T06:13:30.039Z,112.17
2018-03-06T06:23:31.600Z,126.47
2018-03-06T06:33:33.160Z,140.07
2018-03-06T06:43:36.907Z,145.10
2018-03-06T06:53:38.465Z,152.87
2018-03-06T07:03:40.065Z,153.70
2018-03-06T07:13:41.778Z,139.00
2018-03-06T07:23:43.312Z,161.13
2018-03-06T07:33:44.767Z,142.10
2018-03-06T07:43:46.261Z,158.00
2018-03-06T07:53:47.749Z,149.80
2018-03-06T08:03:49.267Z,144.47
2018-03-06T08:13:50.814Z,151.63
2018-03-06T08:23:54.166Z,149.03
2018-03-06T08:33:55.645Z,129.73
2018-03-06T08:43:57.894Z,140.23
2018-03-06T08:53:59.366Z,146.37
2018-03-06T09:04:01.585Z,149.07
2018-03-06T09:14:03.811Z,131.03
2018-03-06T09:24:06.126Z,161.23
2018-03-06T09:34:08.334Z,160.17
2018-03-06T09:44:10.608Z,147.47
2018-03-06T09:54:12.074Z,151.07
2018-03-06T10:04:13.534Z,142.27
2018-03-06T10:14:15.009Z,138.90
2018-03-06T10:24:16.507Z,144.10
2018-03-06T10:34:18.053Z,136.27
2018-03-06T10:44:20.352Z,130.63
2018-03-06T10:54:22.656Z,132.73
2018-03-06T11:04:24.242Z,140.17
2018-03-06T11:14:25.834Z,127.90
2018-03-06T11:24:27.346Z,128.77
2018-03-06T11:34:28.878Z,140.63
2018-03-06T11:44:31.201Z,147.57
2018-03-06T11:54:33.472Z,144.07
2018-03-06T12:04:35.017Z,131.53
2018-03-06T12:14:37.314Z,126.20
2018-03-06T12:24:38.837Z,121.53
2018-03-06T12:34:41.134Z,135.23
2018-03-06T12:44:42.689Z,127.57
2018-03-06T12:54:44.270Z,125.77
2018-03-06T13:04:46.571Z,125.20
2018-03-06T13:14:48.136Z,114.50
2018-03-06T13:24:49.718Z,118.17
2018-03-06T13:34:51.313Z,117.43
2018-03-06T13:44:52.904Z,113.33
2018-03-06T13:54:54.377Z,112.00
2018-03-06T14:04:55.931Z,116.37
2018-03-06T14:14:57.528Z,98.00
2018-03-06T14:24:59.077Z,112.80
2018-03-06T14:35:00.629Z,109.40
2018-03-06T14:45:02.192Z,104.83
2018-03-06T14:55:03.785Z,107.67
2018-03-06T15:05:05.249Z,106.50
2018-03-06T15:15:06.841Z,93.73
2018-03-06T15:25:08.466Z,108.00
2018-03-06T15:35:10.783Z,114.93
2018-03-06T15:45:13.085Z,104.13
2018-03-06T15:55:14.925Z,110.40
2018-03-06T16:05:16.425Z,133.33
2018-03-06T16:15:18.045Z,125.03
2018-03-06T16:25:19.518Z,112.93
2018-03-06T16:35:21.020Z,113.73
2018-03-06T16:45:22.620Z,136.57
2018-03-06T16:55:24.088Z,114.87
2018-03-06T17:05:25.534Z,134.07
2018-03-06T17:15:27.089Z,138.93
2018-03-06T17:25:28.979Z,129.27
2018-03-06T17:35:30.534Z,161.83
2018-03-06T17:45:32.076Z,134.30
2018-03-06T17:55:33.584Z,128.07
2018-03-06T18:05:35.042Z,134.57
2018-03-06T18:15:36.590Z,134.33
2018-03-06T18:25:38.170Z,145.33
2018-03-06T18:35:39.661Z,126.23
2018-03-06T18:45:41.196Z,128.00
2018-03-06T18:55:43.521Z,133.43
2018-03-06T19:26:53.061Z,145.43
2018-03-06T19:36:54.581Z,131.90
2018-03-06T19:46:56.148Z,147.93
2018-03-06T19:56:58.370Z,140.43
2018-03-06T20:06:59.965Z,143.50
2018-03-06T20:17:02.343Z,138.30
2018-03-06T20:27:04.564Z,147.53
2018-03-06T20:37:06.094Z,120.87
2018-03-06T20:47:14.255Z,149.07
2018-03-06T20:57:17.359Z,144.10
2018-03-06T21:07:18.868Z,167.80
2018-03-06T21:17:20.354Z,156.00
2018-03-06T21:27:21.993Z,174.07
2018-03-06T21:37:24.347Z,157.63
2018-03-06T21:47:26.206Z,170.23
2018-03-06T21:57:28.516Z,160.40
2018-03-06T22:07:30.134Z,135.67
2018-03-06T22:17:32.409Z,153.63
2018-03-06T22:27:34.019Z,141.30
2018-03-06T22:37:35.566Z,145.13
2018-03-06T22:47:37.117Z,111.07
2018-03-06T22:57:38.717Z,133.37
2018-03-06T23:07:40.298Z,125.33
2018-03-06T23:17:42.070Z,132.13
2018-03-06T23:27:43.764Z,124.67
2018-03-06T23:37:46.072Z,114.33
2018-03-06T23:47:48.341Z,112.40
2018-03-06T23:57:49.860Z,117.40
